sensor_id;sensor_type;location;lat;lon;timestamp;P1;durP1;ratioP1;P2;durP2;ratioP2
31716;SDS011;18301;51.076;17.046;2022-08-04T00:08:32;10.90;;;9.20;;
31716;SDS011;18301;51.076;17.046;2022-08-04T00:13:52;12.82;;;8.80;;
31716;SDS011;18301;51.076;17.046;2022-08-04T00:19:10;11.45;;;9.18;;
31716;SDS011;18301;51.076;17.046;2022-08-04T00:24:16;11.23;;;9.02;;
31716;SDS011;18301;51.076;17.046;2022-08-04T00:29:21;11.20;;;8.50;;
31716;SDS011;18301;51.076;17.046;2022-08-04T00:34:24;9.75;;;8.02;;
31716;SDS011;18301;51.076;17.046;2022-08-04T00:39:29;18.60;;;9.20;;
31716;SDS011;18301;51.076;17.046;2022-08-04T00:50:10;13.73;;;8.88;;
31716;SDS011;18301;51.076;17.046;2022-08-04T01:00:47;11.20;;;8.88;;
31716;SDS011;18301;51.076;17.046;2022-08-04T01:17:01;11.02;;;7.78;;
31716;SDS011;18301;51.076;17.046;2022-08-04T01:32:47;10.93;;;8.20;;
31716;SDS011;18301;51.076;17.046;2022-08-04T01:38:01;10.20;;;8.70;;
31716;SDS011;18301;51.076;17.046;2022-08-04T01:43:22;10.45;;;8.25;;
31716;SDS011;18301;51.076;17.046;2022-08-04T01:48:25;11.70;;;8.30;;
31716;SDS011;18301;51.076;17.046;2022-08-04T01:53:31;11.82;;;9.25;;
31716;SDS011;18301;51.076;17.046;2022-08-04T01:58:35;11.35;;;9.43;;
31716;SDS011;18301;51.076;17.046;2022-08-04T02:03:39;14.77;;;8.77;;
31716;SDS011;18301;51.076;17.046;2022-08-04T02:09:04;11.40;;;9.60;;
31716;SDS011;18301;51.076;17.046;2022-08-04T02:14:13;12.65;;;10.52;;
31716;SDS011;18301;51.076;17.046;2022-08-04T02:19:55;13.98;;;10.05;;
31716;SDS011;18301;51.076;17.046;2022-08-04T02:25:09;14.57;;;10.25;;
31716;SDS011;18301;51.076;17.046;2022-08-04T02:30:12;11.85;;;9.38;;
31716;SDS011;18301;51.076;17.046;2022-08-04T02:35:20;11.88;;;9.95;;
31716;SDS011;18301;51.076;17.046;2022-08-04T02:40:27;11.65;;;10.05;;
31716;SDS011;18301;51.076;17.046;2022-08-04T02:45:30;16.17;;;10.65;;
31716;SDS011;18301;51.076;17.046;2022-08-04T02:50:37;17.25;;;10.13;;
31716;SDS011;18301;51.076;17.046;2022-08-04T02:55:40;12.88;;;9.70;;
31716;SDS011;18301;51.076;17.046;2022-08-04T03:00:52;11.98;;;9.57;;
31716;SDS011;18301;51.076;17.046;2022-08-04T03:06:06;12.95;;;9.82;;
31716;SDS011;18301;51.076;17.046;2022-08-04T03:39:13;14.70;;;11.40;;
31716;SDS011;18301;51.076;17.046;2022-08-04T03:44:41;16.60;;;11.05;;
31716;SDS011;18301;51.076;17.046;2022-08-04T03:50:10;14.23;;;10.55;;
31716;SDS011;18301;51.076;17.046;2022-08-04T03:55:24;14.10;;;11.00;;
31716;SDS011;18301;51.076;17.046;2022-08-04T04:01:05;17.15;;;10.48;;
31716;SDS011;18301;51.076;17.046;2022-08-04T04:06:36;17.50;;;11.25;;
31716;SDS011;18301;51.076;17.046;2022-08-04T04:28:22;14.45;;;10.77;;
31716;SDS011;18301;51.076;17.046;2022-08-04T04:39:24;17.13;;;11.18;;
31716;SDS011;18301;51.076;17.046;2022-08-04T04:49:51;12.93;;;9.20;;
31716;SDS011;18301;51.076;17.046;2022-08-04T04:55:02;19.77;;;13.45;;
31716;SDS011;18301;51.076;17.046;2022-08-04T05:00:11;20.25;;;14.88;;
31716;SDS011;18301;51.076;17.046;2022-08-04T05:16:25;15.00;;;11.15;;
31716;SDS011;18301;51.076;17.046;2022-08-04T05:21:35;18.10;;;11.10;;
31716;SDS011;18301;51.076;17.046;2022-08-04T05:26:47;14.10;;;9.55;;
31716;SDS011;18301;51.076;17.046;2022-08-04T05:31:52;12.52;;;10.13;;
31716;SDS011;18301;51.076;17.046;2022-08-04T05:36:57;13.88;;;10.43;;
31716;SDS011;18301;51.076;17.046;2022-08-04T05:42:02;12.68;;;9.60;;
31716;SDS011;18301;51.076;17.046;2022-08-04T05:47:07;11.00;;;9.30;;
31716;SDS011;18301;51.076;17.046;2022-08-04T05:52:13;13.40;;;9.27;;
31716;SDS011;18301;51.076;17.046;2022-08-04T05:57:15;12.90;;;9.15;;
31716;SDS011;18301;51.076;17.046;2022-08-04T06:02:18;9.82;;;8.93;;
31716;SDS011;18301;51.076;17.046;2022-08-04T06:07:20;14.55;;;8.77;;
31716;SDS011;18301;51.076;17.046;2022-08-04T06:12:27;10.15;;;8.25;;
31716;SDS011;18301;51.076;17.046;2022-08-04T06:17:36;11.52;;;7.75;;
31716;SDS011;18301;51.076;17.046;2022-08-04T06:23:05;13.80;;;8.27;;
31716;SDS011;18301;51.076;17.046;2022-08-04T06:28:09;12.55;;;8.40;;
31716;SDS011;18301;51.076;17.046;2022-08-04T06:33:13;12.00;;;8.50;;
31716;SDS011;18301;51.076;17.046;2022-08-04T06:38:53;8.73;;;7.55;;
31716;SDS011;18301;51.076;17.046;2022-08-04T06:44:00;13.07;;;9.00;;
31716;SDS011;18301;51.076;17.046;2022-08-04T06:49:05;9.85;;;7.68;;
31716;SDS011;18301;51.076;17.046;2022-08-04T06:54:08;13.63;;;9.10;;
31716;SDS011;18301;51.076;17.046;2022-08-04T06:59:10;10.95;;;8.20;;
31716;SDS011;18301;51.076;17.046;2022-08-04T07:04:12;11.73;;;7.95;;
31716;SDS011;18301;51.076;17.046;2022-08-04T07:09:15;10.50;;;7.82;;
31716;SDS011;18301;51.076;17.046;2022-08-04T07:14:17;9.43;;;7.97;;
31716;SDS011;18301;51.076;17.046;2022-08-04T07:19:19;9.00;;;7.80;;
31716;SDS011;18301;51.076;17.046;2022-08-04T07:24:27;10.00;;;7.72;;
31716;SDS011;18301;51.076;17.046;2022-08-04T07:29:30;8.68;;;7.65;;
31716;SDS011;18301;51.076;17.046;2022-08-04T07:34:32;8.85;;;7.95;;
31716;SDS011;18301;51.076;17.046;2022-08-04T07:39:35;8.82;;;7.88;;
31716;SDS011;18301;51.076;17.046;2022-08-04T07:44:48;8.88;;;7.95;;
31716;SDS011;18301;51.076;17.046;2022-08-04T07:49:52;10.25;;;7.22;;
31716;SDS011;18301;51.076;17.046;2022-08-04T07:54:58;11.05;;;7.25;;
31716;SDS011;18301;51.076;17.046;2022-08-04T08:00:01;12.27;;;8.30;;
31716;SDS011;18301;51.076;17.046;2022-08-04T08:05:04;9.07;;;8.20;;
31716;SDS011;18301;51.076;17.046;2022-08-04T08:10:13;9.27;;;6.82;;
31716;SDS011;18301;51.076;17.046;2022-08-04T08:15:15;9.07;;;8.20;;
31716;SDS011;18301;51.076;17.046;2022-08-04T08:20:19;8.57;;;7.70;;
31716;SDS011;18301;51.076;17.046;2022-08-04T08:25:31;8.95;;;7.70;;
31716;SDS011;18301;51.076;17.046;2022-08-04T08:30:33;8.60;;;7.70;;
31716;SDS011;18301;51.076;17.046;2022-08-04T09:07:42;10.57;;;8.48;;
31716;SDS011;18301;51.076;17.046;2022-08-04T09:18:55;8.35;;;7.50;;
31716;SDS011;18301;51.076;17.046;2022-08-04T09:24:19;8.25;;;7.45;;
31716;SDS011;18301;51.076;17.046;2022-08-04T09:40:26;9.02;;;8.13;;
31716;SDS011;18301;51.076;17.046;2022-08-04T09:46:14;8.93;;;7.68;;
31716;SDS011;18301;51.076;17.046;2022-08-04T09:51:30;8.82;;;7.85;;
31716;SDS011;18301;51.076;17.046;2022-08-04T09:57:03;8.38;;;7.22;;
31716;SDS011;18301;51.076;17.046;2022-08-04T10:02:17;8.82;;;7.93;;
31716;SDS011;18301;51.076;17.046;2022-08-04T10:13:15;7.22;;;6.55;;
31716;SDS011;18301;51.076;17.046;2022-08-04T10:18:35;7.68;;;6.90;;
31716;SDS011;18301;51.076;17.046;2022-08-04T10:34:40;7.05;;;6.30;;
31716;SDS011;18301;51.076;17.046;2022-08-04T10:39:53;9.38;;;6.28;;
31716;SDS011;18301;51.076;17.046;2022-08-04T10:45:18;6.47;;;5.88;;
31716;SDS011;18301;51.076;17.046;2022-08-04T11:01:28;5.88;;;5.22;;
31716;SDS011;18301;51.076;17.046;2022-08-04T11:06:54;6.95;;;5.38;;
31716;SDS011;18301;51.076;17.046;2022-08-04T11:12:41;7.60;;;6.00;;
31716;SDS011;18301;51.076;17.046;2022-08-04T11:17:26;7.27;;;6.50;;
31716;SDS011;18301;51.076;17.046;2022-08-04T11:22:33;6.40;;;5.80;;
31716;SDS011;18301;51.076;17.046;2022-08-04T11:33:19;6.10;;;5.50;;
31716;SDS011;18301;51.076;17.046;2022-08-04T11:43:55;6.40;;;5.80;;
31716;SDS011;18301;51.076;17.046;2022-08-04T11:59:55;10.40;;;6.57;;
31716;SDS011;18301;51.076;17.046;2022-08-04T12:05:07;6.10;;;5.50;;
31716;SDS011;18301;51.076;17.046;2022-08-04T12:16:16;15.38;;;5.82;;
31716;SDS011;18301;51.076;17.046;2022-08-04T12:26:49;6.15;;;5.60;;
31716;SDS011;18301;51.076;17.046;2022-08-04T12:31:55;7.75;;;6.88;;
31716;SDS011;18301;51.076;17.046;2022-08-04T12:37:01;12.90;;;6.20;;
31716;SDS011;18301;51.076;17.046;2022-08-04T12:42:41;6.20;;;5.63;;
31716;SDS011;18301;51.076;17.046;2022-08-04T12:48:00;6.13;;;5.30;;
31716;SDS011;18301;51.076;17.046;2022-08-04T12:53:11;6.40;;;5.80;;
31716;SDS011;18301;51.076;17.046;2022-08-04T12:58:35;6.40;;;5.80;;
31716;SDS011;18301;51.076;17.046;2022-08-04T13:03:49;6.53;;;5.90;;
31716;SDS011;18301;51.076;17.046;2022-08-04T13:08:55;7.20;;;5.53;;
31716;SDS011;18301;51.076;17.046;2022-08-04T13:14:10;7.68;;;5.25;;
31716;SDS011;18301;51.076;17.046;2022-08-04T13:19:28;5.80;;;5.30;;
31716;SDS011;18301;51.076;17.046;2022-08-04T13:24:41;6.18;;;5.55;;
31716;SDS011;18301;51.076;17.046;2022-08-04T13:30:05;5.95;;;5.38;;
31716;SDS011;18301;51.076;17.046;2022-08-04T13:35:09;8.07;;;6.80;;
31716;SDS011;18301;51.076;17.046;2022-08-04T13:40:12;6.30;;;5.70;;
31716;SDS011;18301;51.076;17.046;2022-08-04T13:45:18;6.78;;;5.43;;
31716;SDS011;18301;51.076;17.046;2022-08-04T13:50:23;5.75;;;5.22;;
31716;SDS011;18301;51.076;17.046;2022-08-04T13:55:28;6.43;;;5.43;;
31716;SDS011;18301;51.076;17.046;2022-08-04T14:00:43;6.18;;;5.63;;
31716;SDS011;18301;51.076;17.046;2022-08-04T14:06:04;5.88;;;5.38;;
31716;SDS011;18301;51.076;17.046;2022-08-04T14:11:09;5.68;;;5.15;;
31716;SDS011;18301;51.076;17.046;2022-08-04T14:16:31;5.93;;;5.32;;
31716;SDS011;18301;51.076;17.046;2022-08-04T14:21:35;5.93;;;5.43;;
31716;SDS011;18301;51.076;17.046;2022-08-04T14:26:37;6.13;;;5.53;;
31716;SDS011;18301;51.076;17.046;2022-08-04T14:31:39;6.03;;;5.50;;
31716;SDS011;18301;51.076;17.046;2022-08-04T14:37:05;7.32;;;5.88;;
31716;SDS011;18301;51.076;17.046;2022-08-04T14:42:25;6.18;;;5.57;;
31716;SDS011;18301;51.076;17.046;2022-08-04T14:47:44;7.25;;;6.55;;
31716;SDS011;18301;51.076;17.046;2022-08-04T14:53:00;7.13;;;6.32;;
31716;SDS011;18301;51.076;17.046;2022-08-04T14:58:04;8.63;;;5.75;;
31716;SDS011;18301;51.076;17.046;2022-08-04T15:03:26;7.72;;;6.97;;
31716;SDS011;18301;51.076;17.046;2022-08-04T15:08:29;6.95;;;6.22;;
31716;SDS011;18301;51.076;17.046;2022-08-04T15:13:32;6.45;;;5.95;;
31716;SDS011;18301;51.076;17.046;2022-08-04T15:18:34;8.93;;;6.07;;
31716;SDS011;18301;51.076;17.046;2022-08-04T15:23:39;6.57;;;5.97;;
31716;SDS011;18301;51.076;17.046;2022-08-04T15:28:44;7.28;;;6.57;;
31716;SDS011;18301;51.076;17.046;2022-08-04T15:33:50;7.35;;;6.70;;
31716;SDS011;18301;51.076;17.046;2022-08-04T15:39:00;6.30;;;5.72;;
31716;SDS011;18301;51.076;17.046;2022-08-04T15:50:00;8.68;;;7.78;;
31716;SDS011;18301;51.076;17.046;2022-08-04T16:05:48;9.32;;;8.02;;
31716;SDS011;18301;51.076;17.046;2022-08-04T16:10:50;8.50;;;7.70;;
31716;SDS011;18301;51.076;17.046;2022-08-04T16:15:53;8.85;;;8.00;;
31716;SDS011;18301;51.076;17.046;2022-08-04T16:21:05;8.38;;;7.57;;
31716;SDS011;18301;51.076;17.046;2022-08-04T16:31:38;8.05;;;6.85;;
31716;SDS011;18301;51.076;17.046;2022-08-04T16:36:55;13.07;;;7.97;;
31716;SDS011;18301;51.076;17.046;2022-08-04T16:41:59;7.85;;;7.05;;
31716;SDS011;18301;51.076;17.046;2022-08-04T16:47:05;8.40;;;7.28;;
31716;SDS011;18301;51.076;17.046;2022-08-04T16:52:21;13.23;;;7.37;;
31716;SDS011;18301;51.076;17.046;2022-08-04T16:57:24;6.90;;;6.18;;
31716;SDS011;18301;51.076;17.046;2022-08-04T17:02:26;9.75;;;8.15;;
31716;SDS011;18301;51.076;17.046;2022-08-04T17:07:28;8.02;;;7.22;;
31716;SDS011;18301;51.076;17.046;2022-08-04T17:13:29;8.93;;;7.63;;
31716;SDS011;18301;51.076;17.046;2022-08-04T17:18:51;10.15;;;7.53;;
31716;SDS011;18301;51.076;17.046;2022-08-04T17:23:55;7.80;;;6.93;;
31716;SDS011;18301;51.076;17.046;2022-08-04T17:29:16;8.20;;;7.40;;
31716;SDS011;18301;51.076;17.046;2022-08-04T17:34:20;9.18;;;7.22;;
31716;SDS011;18301;51.076;17.046;2022-08-04T17:39:26;8.25;;;7.45;;
31716;SDS011;18301;51.076;17.046;2022-08-04T17:44:38;9.85;;;7.30;;
31716;SDS011;18301;51.076;17.046;2022-08-04T17:49:40;7.88;;;7.18;;
31716;SDS011;18301;51.076;17.046;2022-08-04T17:54:59;8.25;;;7.10;;
31716;SDS011;18301;51.076;17.046;2022-08-04T18:00:04;9.30;;;7.55;;
31716;SDS011;18301;51.076;17.046;2022-08-04T18:05:07;8.32;;;7.32;;
31716;SDS011;18301;51.076;17.046;2022-08-04T18:10:12;9.55;;;7.95;;
31716;SDS011;18301;51.076;17.046;2022-08-04T18:15:36;10.45;;;7.88;;
31716;SDS011;18301;51.076;17.046;2022-08-04T18:20:47;8.55;;;7.65;;
31716;SDS011;18301;51.076;17.046;2022-08-04T18:25:50;7.95;;;7.15;;
31716;SDS011;18301;51.076;17.046;2022-08-04T18:30:52;8.68;;;7.72;;
31716;SDS011;18301;51.076;17.046;2022-08-04T18:35:56;8.00;;;7.20;;
31716;SDS011;18301;51.076;17.046;2022-08-04T18:41:17;8.43;;;7.60;;
31716;SDS011;18301;51.076;17.046;2022-08-04T18:46:19;11.90;;;8.40;;
31716;SDS011;18301;51.076;17.046;2022-08-04T18:51:21;9.73;;;7.90;;
31716;SDS011;18301;51.076;17.046;2022-08-04T18:56:30;12.07;;;8.27;;
31716;SDS011;18301;51.076;17.046;2022-08-04T19:01:33;8.40;;;7.60;;
31716;SDS011;18301;51.076;17.046;2022-08-04T19:06:55;10.38;;;8.10;;
31716;SDS011;18301;51.076;17.046;2022-08-04T19:12:19;11.73;;;8.73;;
31716;SDS011;18301;51.076;17.046;2022-08-04T19:17:27;9.07;;;8.15;;
31716;SDS011;18301;51.076;17.046;2022-08-04T19:22:49;11.98;;;8.23;;
31716;SDS011;18301;51.076;17.046;2022-08-04T19:28:11;10.52;;;8.02;;
31716;SDS011;18301;51.076;17.046;2022-08-04T19:33:33;14.57;;;9.55;;
31716;SDS011;18301;51.076;17.046;2022-08-04T19:39:00;11.02;;;9.25;;
31716;SDS011;18301;51.076;17.046;2022-08-04T19:44:11;13.25;;;9.40;;
31716;SDS011;18301;51.076;17.046;2022-08-04T19:49:13;14.98;;;9.57;;
31716;SDS011;18301;51.076;17.046;2022-08-04T19:54:37;9.93;;;8.25;;
31716;SDS011;18301;51.076;17.046;2022-08-04T19:59:41;15.40;;;10.20;;
31716;SDS011;18301;51.076;17.046;2022-08-04T20:04:48;13.55;;;10.68;;
31716;SDS011;18301;51.076;17.046;2022-08-04T20:09:51;14.82;;;9.77;;
31716;SDS011;18301;51.076;17.046;2022-08-04T20:14:54;14.85;;;9.10;;
31716;SDS011;18301;51.076;17.046;2022-08-04T20:19:56;11.07;;;8.10;;
31716;SDS011;18301;51.076;17.046;2022-08-04T20:24:57;8.20;;;7.38;;
31716;SDS011;18301;51.076;17.046;2022-08-04T20:30:19;13.93;;;8.95;;
31716;SDS011;18301;51.076;17.046;2022-08-04T20:35:21;10.43;;;7.97;;
31716;SDS011;18301;51.076;17.046;2022-08-04T20:40:28;10.25;;;7.55;;
31716;SDS011;18301;51.076;17.046;2022-08-04T20:45:30;11.25;;;6.70;;
31716;SDS011;18301;51.076;17.046;2022-08-04T20:50:52;12.02;;;8.50;;
31716;SDS011;18301;51.076;17.046;2022-08-04T20:55:54;9.32;;;7.80;;
31716;SDS011;18301;51.076;17.046;2022-08-04T21:00:56;10.50;;;7.60;;
31716;SDS011;18301;51.076;17.046;2022-08-04T21:05:58;11.48;;;8.48;;
31716;SDS011;18301;51.076;17.046;2022-08-04T21:11:01;11.15;;;7.80;;
31716;SDS011;18301;51.076;17.046;2022-08-04T21:16:06;10.05;;;7.63;;
31716;SDS011;18301;51.076;17.046;2022-08-04T21:21:08;9.30;;;8.30;;
31716;SDS011;18301;51.076;17.046;2022-08-04T21:26:18;11.55;;;7.55;;
31716;SDS011;18301;51.076;17.046;2022-08-04T21:31:26;8.40;;;7.60;;
31716;SDS011;18301;51.076;17.046;2022-08-04T21:36:27;8.98;;;7.63;;
31716;SDS011;18301;51.076;17.046;2022-08-04T21:41:31;8.60;;;7.70;;
31716;SDS011;18301;51.076;17.046;2022-08-04T21:46:44;11.02;;;8.43;;
31716;SDS011;18301;51.076;17.046;2022-08-04T21:51:46;10.57;;;8.10;;
31716;SDS011;18301;51.076;17.046;2022-08-04T21:57:01;10.05;;;7.32;;
31716;SDS011;18301;51.076;17.046;2022-08-04T22:02:03;8.98;;;7.80;;
31716;SDS011;18301;51.076;17.046;2022-08-04T22:07:08;12.55;;;8.30;;
31716;SDS011;18301;51.076;17.046;2022-08-04T22:12:09;10.93;;;8.00;;
31716;SDS011;18301;51.076;17.046;2022-08-04T22:17:12;11.07;;;7.05;;
31716;SDS011;18301;51.076;17.046;2022-08-04T22:22:18;10.68;;;7.90;;
31716;SDS011;18301;51.076;17.046;2022-08-04T22:27:26;9.48;;;7.38;;
31716;SDS011;18301;51.076;17.046;2022-08-04T22:32:55;12.15;;;8.27;;
31716;SDS011;18301;51.076;17.046;2022-08-04T22:37:57;10.75;;;8.38;;
31716;SDS011;18301;51.076;17.046;2022-08-04T22:43:09;10.25;;;8.63;;
31716;SDS011;18301;51.076;17.046;2022-08-04T22:48:31;10.13;;;8.00;;
31716;SDS011;18301;51.076;17.046;2022-08-04T22:53:35;8.57;;;6.95;;
31716;SDS011;18301;51.076;17.046;2022-08-04T22:58:38;11.00;;;8.68;;
31716;SDS011;18301;51.076;17.046;2022-08-04T23:03:46;9.02;;;8.13;;
31716;SDS011;18301;51.076;17.046;2022-08-04T23:08:55;9.25;;;7.93;;
31716;SDS011;18301;51.076;17.046;2022-08-04T23:13:59;10.52;;;8.20;;
31716;SDS011;18301;51.076;17.046;2022-08-04T23:19:01;8.77;;;7.47;;
31716;SDS011;18301;51.076;17.046;2022-08-04T23:24:10;9.95;;;8.23;;
31716;SDS011;18301;51.076;17.046;2022-08-04T23:29:13;10.77;;;8.90;;
31716;SDS011;18301;51.076;17.046;2022-08-04T23:34:15;12.95;;;8.60;;
31716;SDS011;18301;51.076;17.046;2022-08-04T23:39:19;9.13;;;8.00;;
31716;SDS011;18301;51.076;17.046;2022-08-04T23:44:22;12.60;;;8.98;;
31716;SDS011;18301;51.076;17.046;2022-08-04T23:49:27;11.55;;;8.52;;
31716;SDS011;18301;51.076;17.046;2022-08-04T23:54:45;13.30;;;8.70;;
31716;SDS011;18301;51.076;17.046;2022-08-04T23:59:50;9.27;;;8.23;;
